sensor_id;sensor_type;location;lat;lon;timestamp;noise_LAeq;noise_LA_min;noise_LA_max;noise_LA01;noise_LA95
69616;Laerm;56822;52.516;4.708;2023-05-07T00:00:01;45.18;42.74;48.01;;
69616;Laerm;56822;52.516;4.708;2023-05-07T00:00:13;45.01;42.86;47.34;;
69616;Laerm;56822;52.516;4.708;2023-05-07T00:00:25;44.19;41.31;46.86;;
69616;Laerm;56822;52.516;4.708;2023-05-07T00:00:35;46.94;42.49;51.43;;
69616;Laerm;56822;52.516;4.708;2023-05-07T00:00:46;47.78;44.58;50.43;;
69616;Laerm;56822;52.516;4.708;2023-05-07T00:00:56;47.38;44.13;50.05;;
69616;Laerm;56822;52.516;4.708;2023-05-07T00:01:09;43.34;40.55;48.16;;
69616;Laerm;56822;52.516;4.708;2023-05-07T00:01:21;44.42;41.01;53.75;;
69616;Laerm;56822;52.516;4.708;2023-05-07T00:01:31;42.74;40.00;47.03;;
69616;Laerm;56822;52.516;4.708;2023-05-07T00:01:41;45.03;41.15;48.97;;
69616;Laerm;56822;52.516;4.708;2023-05-07T00:01:52;42.08;37.75;46.65;;
69616;Laerm;56822;52.516;4.708;2023-05-07T00:02:03;39.78;36.49;44.24;;
69616;Laerm;56822;52.516;4.708;2023-05-07T00:02:13;42.04;39.31;45.50;;
69616;Laerm;56822;52.516;4.708;2023-05-07T00:02:24;39.74;37.10;44.30;;
69616;Laerm;56822;52.516;4.708;2023-05-07T00:02:35;41.76;37.48;49.46;;
69616;Laerm;56822;52.516;4.708;2023-05-07T00:02:46;43.18;40.51;50.72;;
69616;Laerm;56822;52.516;4.708;2023-05-07T00:02:56;44.51;40.14;48.96;;
69616;Laerm;56822;52.516;4.708;2023-05-07T00:03:06;43.47;40.53;45.63;;
69616;Laerm;56822;52.516;4.708;2023-05-07T00:03:16;42.62;39.70;55.18;;
69616;Laerm;56822;52.516;4.708;2023-05-07T00:03:27;41.10;38.23;43.43;;
69616;Laerm;56822;52.516;4.708;2023-05-07T00:03:37;43.11;39.40;47.02;;
69616;Laerm;56822;52.516;4.708;2023-05-07T00:03:48;46.94;42.78;51.18;;
69616;Laerm;56822;52.516;4.708;2023-05-07T00:03:58;44.75;41.03;49.54;;
69616;Laerm;56822;52.516;4.708;2023-05-07T00:04:08;41.53;38.59;43.95;;
69616;Laerm;56822;52.516;4.708;2023-05-07T00:04:18;42.17;39.73;46.36;;
69616;Laerm;56822;52.516;4.708;2023-05-07T00:04:29;43.62;40.77;48.53;;
69616;Laerm;56822;52.516;4.708;2023-05-07T00:04:45;42.67;38.64;45.53;;
69616;Laerm;56822;52.516;4.708;2023-05-07T00:04:56;47.75;40.87;52.66;;
69616;Laerm;56822;52.516;4.708;2023-05-07T00:05:06;44.61;41.07;50.30;;
69616;Laerm;56822;52.516;4.708;2023-05-07T00:05:17;44.15;40.31;49.40;;
69616;Laerm;56822;52.516;4.708;2023-05-07T00:05:28;47.41;43.41;52.32;;
69616;Laerm;56822;52.516;4.708;2023-05-07T00:05:38;47.64;43.12;52.23;;
69616;Laerm;56822;52.516;4.708;2023-05-07T00:05:49;48.91;44.58;53.24;;
69616;Laerm;56822;52.516;4.708;2023-05-07T00:05:59;45.08;42.88;48.82;;
69616;Laerm;56822;52.516;4.708;2023-05-07T00:06:10;44.30;42.07;46.64;;
69616;Laerm;56822;52.516;4.708;2023-05-07T00:06:22;45.09;42.51;52.04;;
69616;Laerm;56822;52.516;4.708;2023-05-07T00:06:33;45.37;42.62;47.90;;
69616;Laerm;56822;52.516;4.708;2023-05-07T00:06:43;46.25;42.45;51.19;;
69616;Laerm;56822;52.516;4.708;2023-05-07T00:06:54;44.61;41.10;51.18;;
69616;Laerm;56822;52.516;4.708;2023-05-07T00:07:05;42.73;39.16;47.78;;
69616;Laerm;56822;52.516;4.708;2023-05-07T00:07:16;45.12;40.48;49.17;;
69616;Laerm;56822;52.516;4.708;2023-05-07T00:07:26;42.79;39.23;49.60;;
69616;Laerm;56822;52.516;4.708;2023-05-07T00:07:36;41.11;38.24;43.70;;
69616;Laerm;56822;52.516;4.708;2023-05-07T00:07:46;44.53;41.03;50.83;;
69616;Laerm;56822;52.516;4.708;2023-05-07T00:07:57;45.65;41.21;50.59;;
69616;Laerm;56822;52.516;4.708;2023-05-07T00:08:07;45.11;39.93;49.00;;
69616;Laerm;56822;52.516;4.708;2023-05-07T00:08:17;41.90;39.42;44.86;;
69616;Laerm;56822;52.516;4.708;2023-05-07T00:08:28;44.31;40.92;47.37;;
69616;Laerm;56822;52.516;4.708;2023-05-07T00:08:38;44.31;41.13;48.78;;
69616;Laerm;56822;52.516;4.708;2023-05-07T00:08:48;44.82;41.46;48.08;;
69616;Laerm;56822;52.516;4.708;2023-05-07T00:08:59;45.63;42.82;48.18;;
69616;Laerm;56822;52.516;4.708;2023-05-07T00:09:09;43.59;40.53;46.80;;
69616;Laerm;56822;52.516;4.708;2023-05-07T00:09:20;44.33;41.94;46.48;;
69616;Laerm;56822;52.516;4.708;2023-05-07T00:09:31;44.12;41.62;46.76;;
69616;Laerm;56822;52.516;4.708;2023-05-07T00:09:41;45.07;42.06;49.80;;
69616;Laerm;56822;52.516;4.708;2023-05-07T00:09:52;43.27;40.22;48.36;;
69616;Laerm;56822;52.516;4.708;2023-05-07T00:10:02;42.16;38.14;45.47;;
69616;Laerm;56822;52.516;4.708;2023-05-07T00:10:13;43.03;40.59;45.49;;
69616;Laerm;56822;52.516;4.708;2023-05-07T00:10:23;41.49;39.44;43.88;;
69616;Laerm;56822;52.516;4.708;2023-05-07T00:10:34;41.47;38.65;48.82;;
69616;Laerm;56822;52.516;4.708;2023-05-07T00:10:44;45.13;38.23;50.33;;
69616;Laerm;56822;52.516;4.708;2023-05-07T00:10:54;47.03;41.59;50.52;;
69616;Laerm;56822;52.516;4.708;2023-05-07T00:11:05;43.92;41.79;46.71;;
69616;Laerm;56822;52.516;4.708;2023-05-07T00:11:15;43.38;40.65;48.14;;
69616;Laerm;56822;52.516;4.708;2023-05-07T00:11:26;44.08;41.25;46.91;;
69616;Laerm;56822;52.516;4.708;2023-05-07T00:11:36;45.65;42.11;50.31;;
69616;Laerm;56822;52.516;4.708;2023-05-07T00:11:47;44.52;41.18;48.92;;
69616;Laerm;56822;52.516;4.708;2023-05-07T00:11:57;45.18;40.62;49.13;;
69616;Laerm;56822;52.516;4.708;2023-05-07T00:12:07;44.28;41.11;48.12;;
69616;Laerm;56822;52.516;4.708;2023-05-07T00:12:18;42.37;38.30;47.21;;
69616;Laerm;56822;52.516;4.708;2023-05-07T00:12:28;41.33;38.44;45.02;;
69616;Laerm;56822;52.516;4.708;2023-05-07T00:12:41;44.78;40.42;49.18;;
69616;Laerm;56822;52.516;4.708;2023-05-07T00:12:51;42.95;40.29;45.88;;
69616;Laerm;56822;52.516;4.708;2023-05-07T00:13:02;41.51;39.28;46.05;;
69616;Laerm;56822;52.516;4.708;2023-05-07T00:13:12;43.78;39.60;48.31;;
69616;Laerm;56822;52.516;4.708;2023-05-07T00:13:22;42.22;39.80;45.02;;
69616;Laerm;56822;52.516;4.708;2023-05-07T00:13:32;45.56;41.05;49.60;;
69616;Laerm;56822;52.516;4.708;2023-05-07T00:13:45;46.68;43.99;50.00;;
69616;Laerm;56822;52.516;4.708;2023-05-07T00:13:56;43.44;39.95;50.79;;
69616;Laerm;56822;52.516;4.708;2023-05-07T00:14:06;42.72;38.48;46.90;;
69616;Laerm;56822;52.516;4.708;2023-05-07T00:14:16;40.86;38.78;43.20;;
69616;Laerm;56822;52.516;4.708;2023-05-07T00:14:27;40.22;38.06;47.73;;
69616;Laerm;56822;52.516;4.708;2023-05-07T00:14:37;44.94;41.38;49.70;;
69616;Laerm;56822;52.516;4.708;2023-05-07T00:14:47;45.10;41.19;49.49;;
69616;Laerm;56822;52.516;4.708;2023-05-07T00:14:58;48.08;45.36;50.87;;
69616;Laerm;56822;52.516;4.708;2023-05-07T00:15:08;47.26;42.13;52.22;;
69616;Laerm;56822;52.516;4.708;2023-05-07T00:15:18;45.56;41.29;54.31;;
69616;Laerm;56822;52.516;4.708;2023-05-07T00:15:29;44.77;41.08;51.38;;
69616;Laerm;56822;52.516;4.708;2023-05-07T00:15:39;42.51;40.25;45.83;;
69616;Laerm;56822;52.516;4.708;2023-05-07T00:15:49;44.45;41.41;47.64;;
69616;Laerm;56822;52.516;4.708;2023-05-07T00:16:00;43.67;40.48;47.10;;
69616;Laerm;56822;52.516;4.708;2023-05-07T00:16:10;41.81;38.61;56.72;;
69616;Laerm;56822;52.516;4.708;2023-05-07T00:16:20;41.75;38.22;47.15;;
69616;Laerm;56822;52.516;4.708;2023-05-07T00:16:30;44.08;40.40;46.79;;
69616;Laerm;56822;52.516;4.708;2023-05-07T00:16:41;45.74;41.83;48.78;;
69616;Laerm;56822;52.516;4.708;2023-05-07T00:16:51;44.95;39.13;49.38;;
69616;Laerm;56822;52.516;4.708;2023-05-07T00:17:01;40.92;38.28;43.93;;
69616;Laerm;56822;52.516;4.708;2023-05-07T00:17:12;42.62;38.83;46.84;;
69616;Laerm;56822;52.516;4.708;2023-05-07T00:17:22;40.74;37.52;43.69;;
69616;Laerm;56822;52.516;4.708;2023-05-07T00:17:32;41.28;38.32;46.09;;
69616;Laerm;56822;52.516;4.708;2023-05-07T00:17:43;42.09;39.04;45.83;;
69616;Laerm;56822;52.516;4.708;2023-05-07T00:17:53;43.27;40.43;47.76;;
69616;Laerm;56822;52.516;4.708;2023-05-07T00:18:03;41.21;38.29;45.75;;
69616;Laerm;56822;52.516;4.708;2023-05-07T00:18:14;39.20;36.62;51.39;;
69616;Laerm;56822;52.516;4.708;2023-05-07T00:18:24;38.57;36.18;41.82;;
69616;Laerm;56822;52.516;4.708;2023-05-07T00:18:35;38.22;35.32;40.99;;
69616;Laerm;56822;52.516;4.708;2023-05-07T00:18:45;44.35;37.23;64.24;;
69616;Laerm;56822;52.516;4.708;2023-05-07T00:18:55;41.87;39.33;43.77;;
69616;Laerm;56822;52.516;4.708;2023-05-07T00:19:06;42.09;38.85;54.62;;
69616;Laerm;56822;52.516;4.708;2023-05-07T00:19:16;40.25;37.66;44.99;;
69616;Laerm;56822;52.516;4.708;2023-05-07T00:19:26;41.17;37.27;45.46;;
69616;Laerm;56822;52.516;4.708;2023-05-07T00:19:37;42.67;40.14;47.08;;
69616;Laerm;56822;52.516;4.708;2023-05-07T00:19:47;42.53;38.41;47.98;;
69616;Laerm;56822;52.516;4.708;2023-05-07T00:19:57;43.35;38.82;48.96;;
69616;Laerm;56822;52.516;4.708;2023-05-07T00:20:08;42.91;39.09;45.96;;
69616;Laerm;56822;52.516;4.708;2023-05-07T00:20:18;40.82;38.47;43.84;;
69616;Laerm;56822;52.516;4.708;2023-05-07T00:20:29;42.03;38.25;47.33;;
69616;Laerm;56822;52.516;4.708;2023-05-07T00:20:39;39.13;36.45;43.13;;
69616;Laerm;56822;52.516;4.708;2023-05-07T00:20:49;40.75;37.95;43.22;;
69616;Laerm;56822;52.516;4.708;2023-05-07T00:21:00;39.47;36.90;42.24;;
69616;Laerm;56822;52.516;4.708;2023-05-07T00:21:10;42.33;38.62;47.15;;
69616;Laerm;56822;52.516;4.708;2023-05-07T00:21:20;45.29;41.43;52.02;;
69616;Laerm;56822;52.516;4.708;2023-05-07T00:21:31;46.17;41.25;51.27;;
69616;Laerm;56822;52.516;4.708;2023-05-07T00:21:41;39.29;36.89;45.33;;
69616;Laerm;56822;52.516;4.708;2023-05-07T00:21:52;41.02;36.83;55.83;;
69616;Laerm;56822;52.516;4.708;2023-05-07T00:22:04;39.50;36.01;51.76;;
69616;Laerm;56822;52.516;4.708;2023-05-07T00:22:14;37.70;35.78;40.59;;
69616;Laerm;56822;52.516;4.708;2023-05-07T00:22:24;40.44;36.63;44.07;;
69616;Laerm;56822;52.516;4.708;2023-05-07T00:22:34;40.81;37.91;44.17;;
69616;Laerm;56822;52.516;4.708;2023-05-07T00:22:45;43.11;40.46;46.21;;
69616;Laerm;56822;52.516;4.708;2023-05-07T00:22:55;42.13;39.84;45.61;;
69616;Laerm;56822;52.516;4.708;2023-05-07T00:23:06;42.35;39.31;45.83;;
69616;Laerm;56822;52.516;4.708;2023-05-07T00:23:16;40.66;37.57;51.12;;
69616;Laerm;56822;52.516;4.708;2023-05-07T00:23:26;46.06;39.70;51.11;;
69616;Laerm;56822;52.516;4.708;2023-05-07T00:23:36;45.68;39.22;51.29;;
69616;Laerm;56822;52.516;4.708;2023-05-07T00:23:47;40.58;38.38;44.48;;
69616;Laerm;56822;52.516;4.708;2023-05-07T00:23:57;42.98;40.34;48.53;;
69616;Laerm;56822;52.516;4.708;2023-05-07T00:24:07;46.31;42.45;50.65;;
69616;Laerm;56822;52.516;4.708;2023-05-07T00:24:17;43.91;38.53;52.97;;
69616;Laerm;56822;52.516;4.708;2023-05-07T00:24:28;39.52;37.22;43.39;;
69616;Laerm;56822;52.516;4.708;2023-05-07T00:24:38;41.64;38.48;56.05;;
69616;Laerm;56822;52.516;4.708;2023-05-07T00:24:48;40.79;37.24;44.57;;
69616;Laerm;56822;52.516;4.708;2023-05-07T00:24:59;42.09;39.34;46.34;;
69616;Laerm;56822;52.516;4.708;2023-05-07T00:25:09;43.92;39.45;48.82;;
69616;Laerm;56822;52.516;4.708;2023-05-07T00:25:20;43.17;38.95;50.50;;
69616;Laerm;56822;52.516;4.708;2023-05-07T00:25:30;42.13;39.52;46.60;;
69616;Laerm;56822;52.516;4.708;2023-05-07T00:25:40;44.93;39.88;49.47;;
69616;Laerm;56822;52.516;4.708;2023-05-07T00:25:51;44.45;41.18;48.87;;
69616;Laerm;56822;52.516;4.708;2023-05-07T00:26:01;45.66;40.89;50.26;;
69616;Laerm;56822;52.516;4.708;2023-05-07T00:26:11;44.35;39.97;48.68;;
69616;Laerm;56822;52.516;4.708;2023-05-07T00:26:22;41.65;36.99;52.57;;
69616;Laerm;56822;52.516;4.708;2023-05-07T00:26:32;41.63;37.43;46.13;;
69616;Laerm;56822;52.516;4.708;2023-05-07T00:26:42;44.17;40.95;48.23;;
69616;Laerm;56822;52.516;4.708;2023-05-07T00:26:53;44.15;40.98;54.59;;
69616;Laerm;56822;52.516;4.708;2023-05-07T00:27:03;43.79;38.75;58.25;;
69616;Laerm;56822;52.516;4.708;2023-05-07T00:27:13;43.11;40.04;47.09;;
69616;Laerm;56822;52.516;4.708;2023-05-07T00:27:24;39.91;36.96;43.18;;
69616;Laerm;56822;52.516;4.708;2023-05-07T00:27:34;41.54;37.88;46.45;;
69616;Laerm;56822;52.516;4.708;2023-05-07T00:27:45;44.06;40.92;48.03;;
69616;Laerm;56822;52.516;4.708;2023-05-07T00:27:55;43.76;37.95;48.75;;
69616;Laerm;56822;52.516;4.708;2023-05-07T00:28:05;43.19;38.06;50.11;;
69616;Laerm;56822;52.516;4.708;2023-05-07T00:28:16;43.13;39.79;49.85;;
69616;Laerm;56822;52.516;4.708;2023-05-07T00:28:26;43.15;37.52;50.17;;
69616;Laerm;56822;52.516;4.708;2023-05-07T00:28:36;43.06;39.15;52.67;;
69616;Laerm;56822;52.516;4.708;2023-05-07T00:28:46;43.89;39.17;47.84;;
69616;Laerm;56822;52.516;4.708;2023-05-07T00:28:57;46.65;40.78;51.11;;
69616;Laerm;56822;52.516;4.708;2023-05-07T00:29:07;43.41;38.23;51.04;;
69616;Laerm;56822;52.516;4.708;2023-05-07T00:29:17;40.59;37.89;43.08;;
69616;Laerm;56822;52.516;4.708;2023-05-07T00:29:28;44.18;39.80;48.18;;
69616;Laerm;56822;52.516;4.708;2023-05-07T00:29:38;43.52;39.89;49.80;;
69616;Laerm;56822;52.516;4.708;2023-05-07T00:29:49;42.60;39.80;46.12;;
69616;Laerm;56822;52.516;4.708;2023-05-07T00:29:59;41.25;38.84;43.90;;
69616;Laerm;56822;52.516;4.708;2023-05-07T00:30:10;42.01;38.27;48.02;;
69616;Laerm;56822;52.516;4.708;2023-05-07T00:30:20;41.90;36.61;46.23;;
69616;Laerm;56822;52.516;4.708;2023-05-07T00:30:30;38.34;35.79;43.45;;
69616;Laerm;56822;52.516;4.708;2023-05-07T00:30:41;39.20;36.47;42.46;;
69616;Laerm;56822;52.516;4.708;2023-05-07T00:30:51;38.84;36.51;49.23;;
69616;Laerm;56822;52.516;4.708;2023-05-07T00:31:01;38.40;36.61;44.72;;
69616;Laerm;56822;52.516;4.708;2023-05-07T00:31:11;41.48;37.60;50.31;;
69616;Laerm;56822;52.516;4.708;2023-05-07T00:31:22;44.05;38.79;47.50;;
69616;Laerm;56822;52.516;4.708;2023-05-07T00:31:32;42.81;35.73;48.72;;
69616;Laerm;56822;52.516;4.708;2023-05-07T00:31:42;36.37;34.62;39.29;;
69616;Laerm;56822;52.516;4.708;2023-05-07T00:31:53;38.34;35.73;40.83;;
69616;Laerm;56822;52.516;4.708;2023-05-07T00:32:04;40.57;38.31;44.83;;
69616;Laerm;56822;52.516;4.708;2023-05-07T00:32:15;42.41;38.66;45.86;;
69616;Laerm;56822;52.516;4.708;2023-05-07T00:32:25;44.58;41.51;50.06;;
69616;Laerm;56822;52.516;4.708;2023-05-07T00:32:35;46.65;41.17;52.99;;
69616;Laerm;56822;52.516;4.708;2023-05-07T00:32:46;45.56;41.99;52.42;;
69616;Laerm;56822;52.516;4.708;2023-05-07T00:32:58;45.31;40.76;49.09;;
69616;Laerm;56822;52.516;4.708;2023-05-07T00:33:09;41.93;39.46;44.17;;
69616;Laerm;56822;52.516;4.708;2023-05-07T00:33:19;42.56;39.80;45.28;;
69616;Laerm;56822;52.516;4.708;2023-05-07T00:33:30;41.38;38.30;47.98;;
69616;Laerm;56822;52.516;4.708;2023-05-07T00:33:41;43.07;39.55;45.84;;
69616;Laerm;56822;52.516;4.708;2023-05-07T00:33:51;43.18;39.43;47.59;;
69616;Laerm;56822;52.516;4.708;2023-05-07T00:34:01;43.00;38.41;47.24;;
69616;Laerm;56822;52.516;4.708;2023-05-07T00:34:12;44.51;39.91;47.63;;
69616;Laerm;56822;52.516;4.708;2023-05-07T00:34:22;42.68;39.60;45.24;;
69616;Laerm;56822;52.516;4.708;2023-05-07T00:34:32;46.77;42.54;50.29;;
69616;Laerm;56822;52.516;4.708;2023-05-07T00:34:43;47.35;42.47;52.50;;
69616;Laerm;56822;52.516;4.708;2023-05-07T00:34:53;47.53;41.20;55.62;;
69616;Laerm;56822;52.516;4.708;2023-05-07T00:35:04;46.13;38.45;54.11;;
69616;Laerm;56822;52.516;4.708;2023-05-07T00:35:14;42.97;40.80;46.87;;
69616;Laerm;56822;52.516;4.708;2023-05-07T00:35:25;44.16;41.82;46.17;;
69616;Laerm;56822;52.516;4.708;2023-05-07T00:35:35;43.79;41.43;46.41;;
69616;Laerm;56822;52.516;4.708;2023-05-07T00:35:46;46.63;42.66;51.79;;
69616;Laerm;56822;52.516;4.708;2023-05-07T00:35:56;49.31;45.75;54.44;;
69616;Laerm;56822;52.516;4.708;2023-05-07T00:36:06;45.83;41.12;50.57;;
69616;Laerm;56822;52.516;4.708;2023-05-07T00:36:16;45.65;40.72;52.04;;
69616;Laerm;56822;52.516;4.708;2023-05-07T00:36:27;46.18;41.97;55.25;;
69616;Laerm;56822;52.516;4.708;2023-05-07T00:36:37;43.19;38.54;47.77;;
69616;Laerm;56822;52.516;4.708;2023-05-07T00:36:48;41.43;39.01;45.20;;
69616;Laerm;56822;52.516;4.708;2023-05-07T00:36:58;43.14;40.49;51.78;;
69616;Laerm;56822;52.516;4.708;2023-05-07T00:37:08;44.31;41.48;48.82;;
69616;Laerm;56822;52.516;4.708;2023-05-07T00:37:18;41.60;37.30;45.07;;
69616;Laerm;56822;52.516;4.708;2023-05-07T00:37:29;43.68;40.14;46.66;;
69616;Laerm;56822;52.516;4.708;2023-05-07T00:37:40;44.89;41.57;49.91;;
69616;Laerm;56822;52.516;4.708;2023-05-07T00:37:50;44.21;40.71;48.36;;
69616;Laerm;56822;52.516;4.708;2023-05-07T00:38:00;42.85;39.69;47.75;;
69616;Laerm;56822;52.516;4.708;2023-05-07T00:38:11;42.91;41.02;50.13;;
69616;Laerm;56822;52.516;4.708;2023-05-07T00:38:21;41.80;38.09;56.02;;
69616;Laerm;56822;52.516;4.708;2023-05-07T00:38:31;39.98;37.52;42.33;;
69616;Laerm;56822;52.516;4.708;2023-05-07T00:38:42;43.15;39.22;49.27;;
69616;Laerm;56822;52.516;4.708;2023-05-07T00:38:53;46.72;42.64;50.68;;
69616;Laerm;56822;52.516;4.708;2023-05-07T00:39:04;44.78;41.19;49.81;;
69616;Laerm;56822;52.516;4.708;2023-05-07T00:39:14;44.58;41.89;50.77;;
69616;Laerm;56822;52.516;4.708;2023-05-07T00:39:24;44.16;40.84;47.72;;
69616;Laerm;56822;52.516;4.708;2023-05-07T00:39:35;45.60;41.36;51.07;;
69616;Laerm;56822;52.516;4.708;2023-05-07T00:39:45;46.21;42.32;50.84;;
69616;Laerm;56822;52.516;4.708;2023-05-07T00:39:56;42.73;40.59;44.90;;
69616;Laerm;56822;52.516;4.708;2023-05-07T00:40:06;41.60;38.49;47.76;;
69616;Laerm;56822;52.516;4.708;2023-05-07T00:40:17;41.31;38.65;44.93;;
69616;Laerm;56822;52.516;4.708;2023-05-07T00:40:28;41.16;38.74;44.32;;
69616;Laerm;56822;52.516;4.708;2023-05-07T00:40:38;43.92;39.89;47.08;;
69616;Laerm;56822;52.516;4.708;2023-05-07T00:40:48;43.72;39.84;49.85;;
69616;Laerm;56822;52.516;4.708;2023-05-07T00:40:59;46.72;42.20;50.67;;
69616;Laerm;56822;52.516;4.708;2023-05-07T00:41:09;46.62;42.15;51.94;;
69616;Laerm;56822;52.516;4.708;2023-05-07T00:41:19;46.92;41.63;53.49;;
69616;Laerm;56822;52.516;4.708;2023-05-07T00:41:30;45.79;42.03;49.94;;
69616;Laerm;56822;52.516;4.708;2023-05-07T00:41:43;48.58;41.04;56.55;;
69616;Laerm;56822;52.516;4.708;2023-05-07T00:41:53;48.46;41.20;56.84;;
69616;Laerm;56822;52.516;4.708;2023-05-07T00:42:04;44.33;39.41;49.35;;
69616;Laerm;56822;52.516;4.708;2023-05-07T00:42:14;40.66;37.42;43.80;;
69616;Laerm;56822;52.516;4.708;2023-05-07T00:42:26;43.93;40.58;47.49;;
69616;Laerm;56822;52.516;4.708;2023-05-07T00:42:36;46.87;43.89;50.44;;
69616;Laerm;56822;52.516;4.708;2023-05-07T00:42:47;47.49;44.02;52.74;;
69616;Laerm;56822;52.516;4.708;2023-05-07T00:42:58;45.33;41.24;48.66;;
69616;Laerm;56822;52.516;4.708;2023-05-07T00:43:09;42.26;38.69;47.19;;
69616;Laerm;56822;52.516;4.708;2023-05-07T00:43:20;40.98;38.65;43.36;;
69616;Laerm;56822;52.516;4.708;2023-05-07T00:43:30;42.15;39.30;44.94;;
69616;Laerm;56822;52.516;4.708;2023-05-07T00:43:42;40.95;38.05;44.34;;
69616;Laerm;56822;52.516;4.708;2023-05-07T00:43:52;40.32;37.33;43.08;;
69616;Laerm;56822;52.516;4.708;2023-05-07T00:44:02;45.20;40.86;48.70;;
69616;Laerm;56822;52.516;4.708;2023-05-07T00:44:13;46.18;41.88;50.76;;
69616;Laerm;56822;52.516;4.708;2023-05-07T00:44:24;45.53;41.68;49.80;;
69616;Laerm;56822;52.516;4.708;2023-05-07T00:44:35;42.50;39.52;45.78;;
69616;Laerm;56822;52.516;4.708;2023-05-07T00:44:45;46.19;39.88;57.41;;
69616;Laerm;56822;52.516;4.708;2023-05-07T00:44:55;45.98;42.90;48.71;;
69616;Laerm;56822;52.516;4.708;2023-05-07T00:45:06;44.62;41.04;46.95;;
69616;Laerm;56822;52.516;4.708;2023-05-07T00:45:17;43.33;40.48;46.11;;
69616;Laerm;56822;52.516;4.708;2023-05-07T00:45:28;43.22;40.04;46.09;;
69616;Laerm;56822;52.516;4.708;2023-05-07T00:45:38;40.14;37.44;43.74;;
69616;Laerm;56822;52.516;4.708;2023-05-07T00:45:48;39.85;37.29;42.87;;
69616;Laerm;56822;52.516;4.708;2023-05-07T00:45:59;41.10;37.63;43.96;;
69616;Laerm;56822;52.516;4.708;2023-05-07T00:46:10;43.68;40.66;46.88;;
69616;Laerm;56822;52.516;4.708;2023-05-07T00:46:22;47.43;43.45;53.83;;
69616;Laerm;56822;52.516;4.708;2023-05-07T00:46:32;43.91;40.68;48.11;;
69616;Laerm;56822;52.516;4.708;2023-05-07T00:46:43;44.61;40.88;48.98;;
69616;Laerm;56822;52.516;4.708;2023-05-07T00:46:55;44.07;40.11;55.42;;
69616;Laerm;56822;52.516;4.708;2023-05-07T00:47:06;40.11;37.00;44.61;;
69616;Laerm;56822;52.516;4.708;2023-05-07T00:47:17;44.05;40.09;50.00;;
69616;Laerm;56822;52.516;4.708;2023-05-07T00:47:27;44.00;40.87;49.85;;
69616;Laerm;56822;52.516;4.708;2023-05-07T00:47:38;43.94;40.47;53.37;;
69616;Laerm;56822;52.516;4.708;2023-05-07T00:47:48;42.90;40.12;48.22;;
69616;Laerm;56822;52.516;4.708;2023-05-07T00:48:00;44.91;40.75;48.90;;
69616;Laerm;56822;52.516;4.708;2023-05-07T00:48:11;47.47;42.78;55.61;;
69616;Laerm;56822;52.516;4.708;2023-05-07T00:48:21;46.84;41.89;57.05;;
69616;Laerm;56822;52.516;4.708;2023-05-07T00:48:31;43.94;41.49;49.51;;
69616;Laerm;56822;52.516;4.708;2023-05-07T00:48:42;44.87;41.03;48.38;;
69616;Laerm;56822;52.516;4.708;2023-05-07T00:48:53;44.77;42.74;47.60;;
69616;Laerm;56822;52.516;4.708;2023-05-07T00:49:03;44.51;40.52;48.86;;
69616;Laerm;56822;52.516;4.708;2023-05-07T00:49:15;46.50;41.69;53.57;;
69616;Laerm;56822;52.516;4.708;2023-05-07T00:49:27;50.39;43.29;58.34;;
69616;Laerm;56822;52.516;4.708;2023-05-07T00:49:44;47.08;38.97;57.71;;
69616;Laerm;56822;52.516;4.708;2023-05-07T00:49:55;47.51;40.84;55.96;;
69616;Laerm;56822;52.516;4.708;2023-05-07T00:50:07;47.27;41.15;57.14;;
69616;Laerm;56822;52.516;4.708;2023-05-07T00:50:17;48.78;42.03;55.94;;
69616;Laerm;56822;52.516;4.708;2023-05-07T00:50:29;49.00;43.33;56.98;;
69616;Laerm;56822;52.516;4.708;2023-05-07T00:50:39;48.70;40.24;55.38;;
69616;Laerm;56822;52.516;4.708;2023-05-07T00:50:50;45.79;39.29;56.39;;
69616;Laerm;56822;52.516;4.708;2023-05-07T00:51:00;49.93;39.74;58.75;;
69616;Laerm;56822;52.516;4.708;2023-05-07T00:51:10;46.75;40.34;56.54;;
69616;Laerm;56822;52.516;4.708;2023-05-07T00:51:22;44.22;39.46;48.27;;
69616;Laerm;56822;52.516;4.708;2023-05-07T00:51:33;45.95;42.12;50.78;;
69616;Laerm;56822;52.516;4.708;2023-05-07T00:51:43;44.69;41.49;55.50;;
69616;Laerm;56822;52.516;4.708;2023-05-07T00:51:54;43.06;40.77;46.42;;
69616;Laerm;56822;52.516;4.708;2023-05-07T00:52:05;43.40;39.43;48.35;;
69616;Laerm;56822;52.516;4.708;2023-05-07T00:52:16;42.57;36.69;54.72;;
69616;Laerm;56822;52.516;4.708;2023-05-07T00:52:27;49.60;37.72;58.10;;
69616;Laerm;56822;52.516;4.708;2023-05-07T00:52:37;48.55;38.00;58.29;;
69616;Laerm;56822;52.516;4.708;2023-05-07T00:52:48;48.98;40.83;56.06;;
69616;Laerm;56822;52.516;4.708;2023-05-07T00:52:58;50.47;39.02;60.34;;
69616;Laerm;56822;52.516;4.708;2023-05-07T00:53:09;44.87;38.84;51.07;;
69616;Laerm;56822;52.516;4.708;2023-05-07T00:53:20;46.22;42.73;51.88;;
69616;Laerm;56822;52.516;4.708;2023-05-07T00:53:30;45.85;39.84;55.41;;
69616;Laerm;56822;52.516;4.708;2023-05-07T00:53:41;47.65;39.27;58.35;;
69616;Laerm;56822;52.516;4.708;2023-05-07T00:53:51;51.00;42.46;59.75;;
69616;Laerm;56822;52.516;4.708;2023-05-07T00:54:02;51.35;43.11;58.22;;
69616;Laerm;56822;52.516;4.708;2023-05-07T00:54:13;45.97;38.33;58.21;;
69616;Laerm;56822;52.516;4.708;2023-05-07T00:54:23;44.78;38.95;52.99;;
69616;Laerm;56822;52.516;4.708;2023-05-07T00:54:34;47.92;40.28;58.78;;
69616;Laerm;56822;52.516;4.708;2023-05-07T00:54:44;51.08;41.91;59.14;;
69616;Laerm;56822;52.516;4.708;2023-05-07T00:54:54;49.18;41.82;58.19;;
69616;Laerm;56822;52.516;4.708;2023-05-07T00:55:05;50.06;40.55;57.86;;
69616;Laerm;56822;52.516;4.708;2023-05-07T00:55:16;50.38;40.94;56.46;;
69616;Laerm;56822;52.516;4.708;2023-05-07T00:55:27;50.61;45.11;59.55;;
69616;Laerm;56822;52.516;4.708;2023-05-07T00:55:37;47.28;40.83;56.04;;
69616;Laerm;56822;52.516;4.708;2023-05-07T00:55:47;50.60;41.14;59.97;;
69616;Laerm;56822;52.516;4.708;2023-05-07T00:55:58;49.89;40.77;59.30;;
69616;Laerm;56822;52.516;4.708;2023-05-07T00:56:08;47.04;39.29;55.59;;
69616;Laerm;56822;52.516;4.708;2023-05-07T00:56:22;43.43;39.71;49.12;;
69616;Laerm;56822;52.516;4.708;2023-05-07T00:56:33;49.40;43.11;60.13;;
69616;Laerm;56822;52.516;4.708;2023-05-07T00:56:44;51.37;40.40;59.43;;
69616;Laerm;56822;52.516;4.708;2023-05-07T00:56:55;39.64;36.32;47.98;;
69616;Laerm;56822;52.516;4.708;2023-05-07T00:57:06;42.00;37.82;47.63;;
69616;Laerm;56822;52.516;4.708;2023-05-07T00:57:16;46.77;41.20;61.76;;
69616;Laerm;56822;52.516;4.708;2023-05-07T00:57:26;45.69;42.93;51.85;;
69616;Laerm;56822;52.516;4.708;2023-05-07T00:57:37;47.92;44.60;52.09;;
69616;Laerm;56822;52.516;4.708;2023-05-07T00:57:49;51.62;43.29;58.86;;
69616;Laerm;56822;52.516;4.708;2023-05-07T00:57:59;51.67;41.75;60.29;;
69616;Laerm;56822;52.516;4.708;2023-05-07T00:58:10;49.51;41.14;60.91;;
69616;Laerm;56822;52.516;4.708;2023-05-07T00:58:21;49.78;41.11;58.03;;
69616;Laerm;56822;52.516;4.708;2023-05-07T00:58:31;49.34;40.81;57.96;;
69616;Laerm;56822;52.516;4.708;2023-05-07T00:58:42;46.21;43.55;51.77;;
69616;Laerm;56822;52.516;4.708;2023-05-07T00:58:52;47.90;43.55;53.51;;
69616;Laerm;56822;52.516;4.708;2023-05-07T00:59:03;47.32;42.64;51.41;;
69616;Laerm;56822;52.516;4.708;2023-05-07T00:59:13;47.23;42.85;53.13;;